ENTC/TOS METAR and TAF weather

Enter ICAO airport designator
Station Type Date Time Source
ENTC METAR 2019/06/16 06:50 UTC NOAA

ENTC 160650Z 05005KT 010V070 9999 BKN012 07/04 Q1017 TEMPO BKN018 RMK WIND 2600FT 35007KT


Station Type Date Time Source
ENTC Decoded METAR 2019/06/16 06:50 UTC NOAA

Tromso / Langnes, Norway (ENTC) 69-41N 018-55E 10M
Jun 16, 2019 - 02:50 AM EDT / 2019.06.16 0650 UTC
Wind: from the NE (050 degrees) at 6 MPH (5 KT) (direction variable):0
Visibility: greater than 7 mile(s):0
Sky conditions: mostly cloudy
Temperature: 44 F (7 C)
Dew Point: 39 F (4 C)
Relative Humidity: 81%
Pressure (altimeter): 30.03 in. Hg (1017 hPa)
ob: ENTC 160650Z 05005KT 010V070 9999 BKN012 07/04 Q1017 TEMPO BKN018 RMK WIND 2600FT 35007KT
cycle: 7

Station Type Date Time Source
ENTC TAF 2019/06/16 06:57 UTC NOAA

TAF ENTC 160500Z 1606/1706 03008KT 9999 BKN018
TEMPO 1606/1609 BKN012

Example: see airport list